Time;durP1;ratioP1;P1;durP2;ratioP2;P2;SDS_P1;SDS_P2;PMS_P1;PMS_P2;Temp;Humidity;BMP_temperature;BMP_pressure;BME280_temperature;BME280_humidity;BME280_pressure;Samples;Min_cycle;Max_cycle;Signal;HPM_P1;HPM_P2
2022/12/31 00:01:24;;;;;;;17.25;13.03;;;;;;;3.18;92.81;100339.41;1774741;80;21493;-77
2022/12/31 00:03:50;;;;;;;22.35;14.93;;;;;;;3.11;92.90;100337.69;1761166;80;21082;-77
2022/12/31 00:06:33;;;;;;;21.25;15.15;;;;;;;3.08;93.00;100334.43;1764645;80;21030;-78
2022/12/31 00:09:03;;;;;;;20.55;15.40;;;;;;;3.15;92.79;100347.51;1774227;80;22044;-78
2022/12/31 00:11:30;;;;;;;18.20;14.57;;;;;;;3.12;92.77;100345.08;1774615;80;21576;-77
2022/12/31 00:13:57;;;;;;;18.80;14.35;;;;;;;3.03;93.03;100343.91;1774110;80;21056;-77
2022/12/31 00:16:27;;;;;;;17.98;13.30;;;;;;;2.98;93.21;100342.58;1774434;80;21216;-78
2022/12/31 00:18:55;;;;;;;20.72;14.45;;;;;;;3.05;93.04;100349.06;1772379;80;21086;-76
2022/12/31 00:21:22;;;;;;;22.58;15.50;;;;;;;3.08;92.92;100358.05;1767574;81;21003;-79
2022/12/31 00:23:50;;;;;;;24.40;16.67;;;;;;;2.99;93.09;100364.76;1767557;81;21066;-78
2022/12/31 00:26:23;;;;;;;29.87;17.45;;;;;;;2.92;93.08;100368.77;1767466;81;21582;-79
2022/12/31 00:28:51;;;;;;;35.68;20.48;;;;;;;2.98;93.07;100368.34;1743805;80;21403;-79
2022/12/31 00:31:20;;;;;;;30.52;18.10;;;;;;;2.97;93.13;100371.90;1735107;82;21055;-79
2022/12/31 00:33:46;;;;;;;27.30;18.12;;;;;;;2.91;93.39;100378.39;1735248;82;21037;-77
2022/12/31 00:36:16;;;;;;;26.45;17.45;;;;;;;2.84;93.49;100369.28;1742906;80;20999;-79
2022/12/31 00:38:45;;;;;;;20.95;14.53;;;;;;;2.83;93.50;100369.37;1757064;81;21577;-76
2022/12/31 00:41:12;;;;;;;24.87;15.50;;;;;;;2.90;93.46;100372.80;1747637;80;21168;-77
2022/12/31 00:43:39;;;;;;;24.30;15.98;;;;;;;2.79;93.49;100379.23;1774123;80;21522;-77
2022/12/31 00:46:05;;;;;;;21.12;15.83;;;;;;;2.79;93.49;100379.23;1774495;80;20998;-78
2022/12/31 00:48:33;;;;;;;19.15;15.20;;;;;;;2.73;93.77;100384.41;1774804;80;21039;-76
2022/12/31 00:51:00;;;;;;;20.48;14.83;;;;;;;2.72;93.90;100391.07;1774315;80;21062;-79
2022/12/31 00:53:26;;;;;;;23.73;15.85;;;;;;;2.78;93.60;100382.78;1774446;80;21149;-78
2022/12/31 00:56:03;;;;;;;24.05;17.98;;;;;;;2.77;93.64;100381.60;1743748;80;21055;-80
2022/12/31 00:58:30;;;;;;;24.27;17.45;;;;;;;2.68;93.87;100379.10;1732917;82;21535;-79
2022/12/31 01:00:56;;;;;;;28.27;18.67;;;;;;;2.60;94.03;100391.41;1744805;82;21061;-78
2022/12/31 01:03:24;;;;;;;28.20;18.25;;;;;;;2.60;94.05;100391.41;1772649;80;21042;-79
2022/12/31 01:05:50;;;;;;;27.00;18.40;;;;;;;2.67;93.75;100394.02;1782632;80;21850;-78
2022/12/31 01:08:17;;;;;;;26.23;18.65;;;;;;;2.64;93.93;100396.83;1782491;80;21065;-79
2022/12/31 01:13:33;;;;;;;26.17;17.02;;;;;;;2.48;94.16;100390.44;1751565;82;21022;-78
2022/12/31 01:16:08;;;;;;;20.97;14.73;;;;;;;2.55;94.39;100400.91;1752440;82;21029;-80
2022/12/31 01:18:35;;;;;;;21.87;15.75;;;;;;;2.55;94.39;100400.91;1752273;82;21553;-79
2022/12/31 01:21:03;;;;;;;23.50;17.67;;;;;;;2.53;94.40;100396.69;1751663;82;21006;-78
2022/12/31 01:23:31;;;;;;;22.62;16.12;;;;;;;2.44;94.57;100401.24;1751591;82;21045;-79
2022/12/31 01:26:02;;;;;;;24.95;17.95;;;;;;;2.40;94.85;100403.70;1779787;80;21073;-79
2022/12/31 01:28:29;;;;;;;31.20;19.00;;;;;;;2.41;94.64;100399.64;1769092;80;21074;-78
2022/12/31 01:30:55;;;;;;;29.95;19.05;;;;;;;2.41;94.59;100397.02;1715519;83;21542;-80
2022/12/31 01:33:22;;;;;;;32.08;21.17;;;;;;;2.41;94.59;100397.02;1764325;81;21054;-78
2022/12/31 01:35:50;;;;;;;30.80;19.77;;;;;;;2.30;94.66;100401.66;1764508;81;21074;-78
2022/12/31 01:38:16;;;;;;;26.77;16.97;;;;;;;2.23;94.94;100403.47;1752347;80;21510;-78
2022/12/31 01:40:43;;;;;;;24.65;16.20;;;;;;;2.28;94.79;100408.79;1751450;82;21034;-81
2022/12/31 01:43:17;;;;;;;21.87;16.10;;;;;;;2.36;94.67;100405.67;1745823;80;21092;-76
2022/12/31 01:45:47;;;;;;;21.97;15.95;;;;;;;2.29;94.85;100411.77;1753745;80;21027;-77
2022/12/31 01:48:16;;;;;;;26.52;16.17;;;;;;;2.20;95.40;100411.52;1751806;80;21545;-75
2022/12/31 01:50:43;;;;;;;21.05;15.90;;;;;;;2.20;95.42;100406.27;1751589;80;21034;-76
2022/12/31 01:53:10;;;;;;;25.45;16.97;;;;;;;2.22;95.53;100407.02;1751582;82;21017;-76
2022/12/31 01:55:49;;;;;;;22.13;16.85;;;;;;;2.14;95.63;100409.67;1751803;82;22120;-76
2022/12/31 01:58:32;;;;;;;22.48;16.67;;;;;;;2.04;95.90;100413.80;1751449;80;21513;-77
2022/12/31 02:00:59;;;;;;;24.57;17.42;;;;;;;2.07;95.48;100415.41;1745933;80;21113;-76
2022/12/31 02:03:26;;;;;;;27.17;17.48;;;;;;;1.98;95.92;100422.05;1774646;80;21046;-76
2022/12/31 02:05:57;;;;;;;30.20;20.75;;;;;;;1.98;95.92;100422.05;1752538;80;21038;-78
2022/12/31 02:08:24;;;;;;;28.07;19.82;;;;;;;1.90;96.01;100418.60;1774222;80;21140;-77
2022/12/31 02:10:51;;;;;;;28.00;18.42;;;;;;;1.88;96.05;100419.17;1775836;80;21027;-79
2022/12/31 02:13:17;;;;;;;23.25;17.02;;;;;;;1.95;95.74;100417.86;1777135;80;21475;-77
2022/12/31 02:15:55;;;;;;;24.30;17.95;;;;;;;1.94;96.11;100423.19;1776649;80;21033;-78
2022/12/31 02:18:40;;;;;;;22.90;16.80;;;;;;;1.89;96.40;100426.55;1767085;80;21716;-78
2022/12/31 02:21:42;;;;;;;20.97;14.60;;;;;;;1.84;96.63;100423.39;1744351;82;21240;-77
2022/12/31 02:24:23;;;;;;;23.85;16.48;;;;;;;1.94;96.62;100425.33;1743396;82;21025;-77
2022/12/31 02:27:06;;;;;;;23.98;16.97;;;;;;;1.90;96.86;100433.02;1745329;80;21050;-78
2022/12/31 02:30:07;;;;;;;23.80;17.07;;;;;;;1.84;96.91;100437.81;1752818;80;21026;-77
2022/12/31 02:32:58;;;;;;;26.23;16.85;;;;;;;1.88;96.58;100437.98;1774465;80;21061;-79
2022/12/31 02:35:38;;;;;;;27.20;17.23;;;;;;;1.88;96.55;100440.61;1766588;80;21813;-77
2022/12/31 02:38:09;;;;;;;27.10;19.27;;;;;;;1.80;96.89;100441.53;1757444;80;21026;-78
2022/12/31 02:40:36;;;;;;;25.95;18.80;;;;;;;1.76;96.95;100443.05;1777632;80;21002;-75
2022/12/31 02:43:02;;;;;;;23.67;16.70;;;;;;;1.83;96.61;100439.56;1776587;80;21055;-77
2022/12/31 02:45:39;;;;;;;22.77;16.65;;;;;;;1.84;96.70;100438.64;1774006;80;21042;-79
2022/12/31 02:48:20;;;;;;;26.25;17.25;;;;;;;1.81;97.19;100436.67;1773893;80;21127;-80
2022/12/31 02:51:27;;;;;;;23.90;15.43;;;;;;;1.76;97.61;100436.50;1757413;80;21054;-79
2022/12/31 02:54:17;;;;;;;21.85;15.85;;;;;;;1.92;97.22;100446.02;1771261;80;21536;-78
2022/12/31 02:57:06;;;;;;;23.62;17.02;;;;;;;1.92;97.22;100446.02;1773848;80;21073;-78
2022/12/31 03:02:32;;;;;;;26.45;17.57;;;;;;;1.81;97.28;100440.60;1755077;80;21614;-81
2022/12/31 03:09:11;;;;;;;28.73;17.67;;;;;;;1.87;96.66;100450.70;1777092;80;21002;-77
2022/12/31 03:12:44;;;;;;;24.57;17.73;;;;;;;1.72;97.07;100452.03;1754116;80;21048;-80
2022/12/31 03:13:33;;;;;;;25.08;16.90;;;;;;;1.65;97.38;100453.33;1739501;82;21072;-78
2022/12/31 03:15:59;;;;;;;22.48;15.90;;;;;;;1.71;97.15;100456.05;1740196;82;21081;-78
2022/12/31 03:26:42;;;;;;;23.85;16.80;;;;;;;1.65;97.17;100449.41;1767976;80;21051;-77
2022/12/31 03:29:08;;;;;;;24.07;17.12;;;;;;;1.69;96.84;100454.83;1753469;80;21195;-77
2022/12/31 03:31:34;;;;;;;24.18;17.32;;;;;;;1.61;96.99;100446.60;1738118;80;21077;-77
2022/12/31 03:34:01;;;;;;;24.37;17.32;;;;;;;1.54;97.14;100449.20;1740157;82;21145;-76
2022/12/31 03:36:28;;;;;;;21.95;16.30;;;;;;;1.48;97.37;100448.27;1738090;80;21502;-76
2022/12/31 03:38:54;;;;;;;23.35;17.37;;;;;;;1.50;97.40;100447.23;1743975;80;22212;-76
2022/12/31 03:41:22;;;;;;;26.00;17.23;;;;;;;1.60;97.04;100444.06;1742742;80;21282;-75
2022/12/31 03:43:49;;;;;;;22.05;17.20;;;;;;;1.58;96.94;100441.53;1736223;82;21041;-76
2022/12/31 03:46:15;;;;;;;27.07;19.02;;;;;;;1.51;97.18;100442.39;1774434;80;21033;-76
2022/12/31 03:48:43;;;;;;;24.67;17.75;;;;;;;1.46;97.56;100446.22;1758566;80;21105;-76
2022/12/31 03:51:09;;;;;;;25.37;17.15;;;;;;;1.50;97.58;100447.23;1767809;80;21062;-77
2022/12/31 03:53:37;;;;;;;23.67;17.42;;;;;;;1.57;97.22;100452.97;1776428;80;21155;-77
2022/12/31 03:56:04;;;;;;;25.20;17.85;;;;;;;1.53;97.33;100458.84;1774170;80;21001;-77
2022/12/31 03:58:31;;;;;;;31.93;21.33;;;;;;;1.46;97.73;100468.00;1761292;80;21498;-77
2022/12/31 04:00:57;;;;;;;28.98;20.52;;;;;;;1.50;97.68;100459.50;1722939;82;21495;-79
2022/12/31 04:03:24;;;;;;;33.60;22.05;;;;;;;1.54;97.54;100458.38;1772797;80;21042;-77
2022/12/31 04:05:54;;;;;;;32.38;22.52;;;;;;;1.48;97.69;100460.06;1745522;80;21278;-78
2022/12/31 04:08:21;;;;;;;29.65;20.88;;;;;;;1.40;97.83;100458.38;1734647;81;21030;-76
2022/12/31 04:10:47;;;;;;;33.10;24.25;;;;;;;1.40;97.79;100466.23;1752495;80;21021;-79
2022/12/31 04:13:13;;;;;;;31.45;21.55;;;;;;;1.47;97.36;100472.32;1736941;82;21010;-81
2022/12/31 04:15:40;;;;;;;28.32;20.65;;;;;;;1.45;97.47;100477.25;1735202;82;22084;-77
2022/12/31 04:18:06;;;;;;;30.08;20.27;;;;;;;1.35;97.63;100478.27;1761139;80;21112;-78
2022/12/31 04:20:33;;;;;;;26.23;18.75;;;;;;;1.31;97.65;100474.15;1719806;81;21030;-79
2022/12/31 04:22:59;;;;;;;29.72;20.48;;;;;;;1.33;97.39;100477.52;1757302;80;21022;-78
2022/12/31 04:25:25;;;;;;;28.00;20.45;;;;;;;1.24;97.46;100477.61;1764524;80;21463;-77
2022/12/31 04:27:52;;;;;;;29.12;19.25;;;;;;;1.12;97.74;100480.92;1760972;80;21077;-79
2022/12/31 04:30:19;;;;;;;27.50;20.30;;;;;;;1.11;97.74;100491.03;1760086;80;21149;-78
2022/12/31 04:32:45;;;;;;;26.33;18.90;;;;;;;1.15;97.54;100494.68;1774264;80;21070;-79
2022/12/31 04:35:12;;;;;;;29.20;19.48;;;;;;;1.06;97.69;100487.83;1770011;80;22221;-77
2022/12/31 04:37:38;;;;;;;32.03;21.48;;;;;;;0.94;98.06;100494.14;1718830;81;21026;-77
2022/12/31 04:40:07;;;;;;;27.55;20.15;;;;;;;0.90;98.31;100491.33;1739482;80;21030;-77
2022/12/31 04:42:35;;;;;;;31.70;21.05;;;;;;;0.94;98.05;100500.69;1741535;80;21128;-76
2022/12/31 04:45:01;;;;;;;28.02;20.05;;;;;;;0.94;98.15;100498.54;1770912;80;21637;-76
2022/12/31 04:47:27;;;;;;;32.58;23.12;;;;;;;0.87;98.40;100501.98;1739212;81;21037;-77
2022/12/31 04:49:54;;;;;;;33.80;22.62;;;;;;;0.81;98.57;100508.02;1743720;82;21033;-77
2022/12/31 04:52:20;;;;;;;31.50;20.82;;;;;;;0.84;98.61;100506.55;1760132;80;21609;-78
2022/12/31 04:54:47;;;;;;;31.82;21.62;;;;;;;0.90;98.11;100508.33;1774661;80;22110;-78
2022/12/31 04:57:13;;;;;;;39.33;20.48;;;;;;;0.89;97.95;100517.12;1765872;80;21022;-77
2022/12/31 04:59:40;;;;;;;36.03;21.05;;;;;;;0.80;98.21;100511.58;1710535;81;21027;-77
2022/12/31 05:02:06;;;;;;;29.02;19.48;;;;;;;0.70;98.53;100519.09;1755571;80;21018;-77
2022/12/31 05:04:33;;;;;;;33.13;20.82;;;;;;;0.70;98.56;100525.16;1772836;80;21033;-78
2022/12/31 05:06:59;;;;;;;30.17;20.77;;;;;;;0.76;98.27;100516.97;1781362;80;22021;-77
2022/12/31 05:09:27;;;;;;;28.45;22.20;;;;;;;0.74;98.57;100531.07;1743347;82;21018;-78
2022/12/31 05:11:53;;;;;;;28.23;20.95;;;;;;;0.69;98.96;100536.54;1756178;80;21081;-79
2022/12/31 05:14:20;;;;;;;29.02;20.60;;;;;;;0.63;99.24;100538.20;1776741;80;21028;-77
2022/12/31 05:16:46;;;;;;;28.20;19.65;;;;;;;0.71;98.99;100541.69;1783175;80;21046;-79
2022/12/31 05:19:13;;;;;;;32.10;22.58;;;;;;;0.76;98.85;100540.98;1777432;80;21732;-79
2022/12/31 05:21:39;;;;;;;27.95;19.70;;;;;;;0.68;99.09;100541.41;1759359;80;21138;-79
2022/12/31 05:24:07;;;;;;;26.50;19.35;;;;;;;0.62;99.61;100535.66;1759793;80;21069;-80
2022/12/31 05:26:34;;;;;;;28.38;19.60;;;;;;;0.66;99.56;100530.19;1775081;80;21057;-80
2022/12/31 05:29:00;;;;;;;26.30;19.37;;;;;;;0.74;99.54;100533.22;1781170;80;21014;-79
2022/12/31 05:31:28;;;;;;;34.00;19.80;;;;;;;0.67;99.74;100525.80;1775379;80;20995;-78
2022/12/31 05:33:54;;;;;;;26.82;19.30;;;;;;;0.61;99.89;100531.38;1768086;80;21050;-79
2022/12/31 05:36:21;;;;;;;24.95;18.27;;;;;;;0.65;99.74;100531.58;1781662;80;21022;-77
2022/12/31 05:38:49;;;;;;;28.57;20.08;;;;;;;0.63;99.90;100529.52;1781265;80;21565;-78
2022/12/31 05:41:15;;;;;;;33.38;22.35;;;;;;;0.53;100.00;100528.70;1770179;80;21006;-78
2022/12/31 05:43:42;;;;;;;33.18;22.95;;;;;;;0.54;100.00;100536.08;1757383;80;21461;-78
2022/12/31 05:46:10;;;;;;;43.68;28.67;;;;;;;0.63;100.00;100530.82;1751009;82;21002;-78
2022/12/31 05:48:36;;;;;;;43.98;27.10;;;;;;;0.62;100.00;100527.38;1779962;80;21029;-80
2022/12/31 05:51:03;;;;;;;38.88;26.17;;;;;;;0.59;100.00;100524.91;1770759;80;21002;-77
2022/12/31 05:53:29;;;;;;;39.63;26.35;;;;;;;0.54;100.00;100519.09;1774486;80;20955;-79
2022/12/31 05:55:56;;;;;;;45.95;32.23;;;;;;;0.63;100.00;100527.73;1773359;80;21107;-79
2022/12/31 05:58:22;;;;;;;46.20;31.15;;;;;;;0.73;100.00;100529.38;1763171;80;21101;-79
2022/12/31 06:00:51;;;;;;;42.55;27.75;;;;;;;0.73;100.00;100531.98;1767230;80;21034;-77
2022/12/31 06:03:17;;;;;;;42.33;27.48;;;;;;;0.70;100.00;100533.48;1774004;80;21595;-77
2022/12/31 06:05:43;;;;;;;42.62;27.77;;;;;;;0.74;100.00;100538.45;1744550;80;21052;-77
2022/12/31 06:08:11;;;;;;;48.17;33.48;;;;;;;0.84;100.00;100535.32;1755175;80;21160;-79
2022/12/31 06:10:38;;;;;;;43.40;27.05;;;;;;;0.82;100.00;100538.48;1747834;80;20994;-78
2022/12/31 06:13:06;;;;;;;38.17;25.17;;;;;;;0.73;100.00;100540.66;1755061;80;21025;-77
2022/12/31 06:15:38;;;;;;;35.73;25.75;;;;;;;0.68;100.00;100543.19;1765951;80;21112;-76
2022/12/31 06:18:05;;;;;;;39.90;27.10;;;;;;;0.74;100.00;100546.30;1783450;80;21002;-77
2022/12/31 06:20:32;;;;;;;36.98;24.90;;;;;;;0.76;100.00;100548.36;1769572;80;22045;-75
2022/12/31 06:22:58;;;;;;;42.20;26.85;;;;;;;0.69;100.00;100538.32;1754223;80;20976;-76
2022/12/31 06:25:25;;;;;;;38.80;24.37;;;;;;;0.61;100.00;100529.59;1781406;80;21065;-76
2022/12/31 06:27:51;;;;;;;36.60;25.17;;;;;;;0.68;100.00;100534.87;1773124;80;21049;-76
2022/12/31 06:30:18;;;;;;;35.52;24.25;;;;;;;0.74;100.00;100536.30;1755571;80;21513;-77
2022/12/31 06:32:44;;;;;;;37.75;25.30;;;;;;;0.69;100.00;100547.00;1779807;80;21516;-79
2022/12/31 06:35:11;;;;;;;33.80;23.77;;;;;;;0.67;100.00;100548.86;1752186;80;21093;-76
2022/12/31 06:37:37;;;;;;;37.63;25.72;;;;;;;0.73;100.00;100541.14;1773423;80;21578;-76
2022/12/31 06:40:06;;;;;;;38.13;29.45;;;;;;;0.81;100.00;100537.63;1782789;80;21029;-80
2022/12/31 06:42:33;;;;;;;44.13;29.75;;;;;;;0.80;100.00;100543.80;1759855;80;21073;-76
2022/12/31 06:44:59;;;;;;;34.73;23.22;;;;;;;0.73;100.00;100538.52;1775872;80;21017;-77
2022/12/31 06:47:26;;;;;;;46.65;25.77;;;;;;;0.75;100.00;100545.81;1768689;80;21038;-76
2022/12/31 06:49:53;;;;;;;34.73;25.37;;;;;;;0.76;99.71;100547.05;1763633;79;21775;-76
2022/12/31 06:52:20;;;;;;;37.28;24.95;;;;;;;0.67;100.00;100551.95;1755348;80;21506;-76
2022/12/31 06:54:47;;;;;;;30.23;23.62;;;;;;;0.62;100.00;100558.75;1754683;80;21073;-76
2022/12/31 06:57:14;;;;;;;33.15;23.32;;;;;;;0.70;100.00;100557.86;1772146;80;21105;-76
2022/12/31 06:59:42;;;;;;;33.28;22.90;;;;;;;0.74;100.00;100558.06;1755018;80;21069;-78
2022/12/31 07:02:36;;;;;;;37.13;24.72;;;;;;;0.71;100.00;100560.00;1746276;80;21059;-77
2022/12/31 07:05:16;;;;;;;36.60;22.98;;;;;;;0.68;100.00;100562.80;1750036;80;21057;-78
2022/12/31 07:08:40;;;;;;;42.95;26.35;;;;;;;0.78;100.00;100566.59;1754866;80;21561;-77
2022/12/31 07:11:26;;;;;;;32.58;23.60;;;;;;;0.87;100.00;100564.77;1742406;80;21133;-77
2022/12/31 07:14:10;;;;;;;34.60;23.40;;;;;;;0.85;100.00;100563.15;1737005;82;21307;-75
2022/12/31 07:17:17;;;;;;;33.25;23.67;;;;;;;0.87;100.00;100558.67;1765729;80;21038;-79
2022/12/31 07:19:55;;;;;;;33.10;22.55;;;;;;;0.94;100.00;100559.55;1774089;80;21594;-78
2022/12/31 07:22:22;;;;;;;34.63;24.67;;;;;;;0.91;100.00;100560.22;1755870;80;21053;-78
2022/12/31 07:24:49;;;;;;;32.83;23.12;;;;;;;0.93;100.00;100564.42;1764210;80;21508;-76
2022/12/31 07:27:39;;;;;;;40.15;27.17;;;;;;;1.02;100.00;100568.75;1743426;82;21010;-77
2022/12/31 07:30:20;;;;;;;34.58;24.72;;;;;;;1.00;100.00;100562.77;1756280;80;21019;-78
2022/12/31 07:33:07;;;;;;;35.88;25.10;;;;;;;1.03;100.00;100571.29;1750648;80;21112;-77
2022/12/31 07:35:59;;;;;;;34.23;24.52;;;;;;;1.15;100.00;100565.34;1742925;80;21065;-76
2022/12/31 07:38:53;;;;;;;37.05;25.20;;;;;;;1.21;100.00;100565.47;1759723;80;21112;-78
2022/12/31 07:41:55;;;;;;;35.38;24.47;;;;;;;1.19;100.00;100573.88;1763895;80;21097;-77
2022/12/31 07:44:37;;;;;;;35.50;25.20;;;;;;;1.27;100.00;100572.13;1743011;80;21042;-76
2022/12/31 07:47:04;;;;;;;40.10;27.55;;;;;;;1.42;100.00;100575.64;1755612;80;21093;-76
2022/12/31 07:49:32;;;;;;;41.90;29.72;;;;;;;1.42;100.00;100581.71;1748751;80;21045;-77
2022/12/31 07:52:01;;;;;;;38.92;27.27;;;;;;;1.42;100.00;100575.17;1744786;80;21057;-77
2022/12/31 07:54:27;;;;;;;38.48;29.02;;;;;;;1.53;100.00;100570.62;1742755;80;21121;-75
2022/12/31 07:56:55;;;;;;;49.35;35.43;;;;;;;1.70;100.00;100572.23;1746519;80;21069;-75
2022/12/31 07:59:52;;;;;;;44.20;33.18;;;;;;;1.74;100.00;100573.77;1749104;80;21034;-79
2022/12/31 08:02:49;;;;;;;40.10;26.70;;;;;;;1.72;100.00;100577.77;1752374;80;21088;-78
2022/12/31 08:05:40;;;;;;;36.93;25.48;;;;;;;1.82;100.00;100583.78;1750184;80;21025;-79
2022/12/31 08:08:32;;;;;;;38.10;27.40;;;;;;;1.94;99.92;100587.80;1764887;80;21093;-74
2022/12/31 08:11:38;;;;;;;40.15;29.25;;;;;;;1.93;100.00;100587.45;1750837;80;21093;-74
2022/12/31 08:14:11;;;;;;;37.95;26.45;;;;;;;1.93;100.00;100587.45;1759683;80;21156;-75
2022/12/31 08:18:05;;;;;;;42.40;27.93;;;;;;;2.27;100.00;100579.30;1833648;77;21985;-75
2022/12/31 08:20:33;;;;;;;36.68;27.27;;;;;;;2.44;100.00;100587.45;1799190;79;21509;-75
2022/12/31 08:23:20;;;;;;;41.35;29.12;;;;;;;2.52;100.00;100578.63;1798864;79;21122;-75
2022/12/31 08:26:29;;;;;;;40.17;26.37;;;;;;;2.71;99.92;100583.09;1781583;79;20965;-76
2022/12/31 08:29:26;;;;;;;34.70;25.95;;;;;;;2.71;99.92;100583.09;1697937;81;21200;-75
2022/12/31 08:32:17;;;;;;;40.55;28.30;;;;;;;2.95;99.12;100578.07;1792943;78;21065;-75
2022/12/31 08:35:01;;;;;;;40.43;28.47;;;;;;;3.06;98.88;100589.66;1764825;78;21008;-75
2022/12/31 08:37:42;;;;;;;43.05;28.07;;;;;;;3.13;98.57;100582.59;1785946;78;21316;-74
2022/12/31 08:40:57;;;;;;;44.03;28.05;;;;;;;3.31;98.38;100576.59;1786677;78;20928;-75
2022/12/31 08:43:43;;;;;;;43.92;30.17;;;;;;;3.57;97.51;100564.83;1799382;78;21039;-76
2022/12/31 08:46:24;;;;;;;44.55;29.10;;;;;;;3.78;97.44;100569.59;1790522;78;21001;-74
2022/12/31 08:48:51;;;;;;;43.58;28.00;;;;;;;3.91;96.48;100559.92;1783586;78;21005;-75
2022/12/31 08:51:20;;;;;;;36.95;26.48;;;;;;;4.00;94.64;100553.17;1777026;78;21099;-74
2022/12/31 08:53:48;;;;;;;44.48;28.32;;;;;;;4.24;92.95;100550.64;1801057;79;21026;-74
2022/12/31 08:56:31;;;;;;;41.08;29.75;;;;;;;4.32;92.46;100550.94;1798468;78;21092;-75
2022/12/31 08:59:29;;;;;;;43.37;30.67;;;;;;;4.50;90.69;100533.86;1825733;78;21068;-74
2022/12/31 09:02:07;;;;;;;36.80;27.32;;;;;;;4.50;90.69;100533.86;1769846;81;21040;-75
2022/12/31 09:05:08;;;;;;;34.18;24.90;;;;;;;4.75;90.18;100526.80;1769620;81;21060;-75
2022/12/31 09:07:39;;;;;;;33.83;25.75;;;;;;;4.99;87.13;100536.04;1775058;78;21006;-73
2022/12/31 09:10:19;;;;;;;36.68;28.27;;;;;;;5.01;86.66;100532.81;1802688;77;21087;-75
2022/12/31 09:13:26;;;;;;;34.05;25.82;;;;;;;5.04;86.01;100531.28;1809364;77;21051;-71
2022/12/31 09:16:10;;;;;;;36.48;26.10;;;;;;;5.10;85.57;100538.73;1790301;77;21134;-75
2022/12/31 09:18:41;;;;;;;34.13;26.68;;;;;;;5.29;84.33;100536.89;1809064;77;21239;-74
2022/12/31 09:21:11;;;;;;;32.73;26.93;;;;;;;5.31;84.51;100538.06;1794328;77;21098;-74
2022/12/31 09:23:39;;;;;;;34.83;26.42;;;;;;;5.36;84.35;100529.84;1791481;78;21014;-75
2022/12/31 09:26:34;;;;;;;31.30;24.77;;;;;;;5.37;83.80;100519.19;1799594;77;21044;-73
2022/12/31 09:29:18;;;;;;;31.48;26.23;;;;;;;5.47;83.21;100518.84;1797467;77;21046;-74
2022/12/31 09:32:05;;;;;;;34.67;26.40;;;;;;;5.63;82.98;100519.83;1800729;77;21129;-74
2022/12/31 09:34:55;;;;;;;37.55;27.77;;;;;;;5.69;82.72;100518.52;1807065;77;21087;-72
2022/12/31 09:37:50;;;;;;;36.50;27.40;;;;;;;5.81;82.46;100518.89;1792860;78;21492;-74
2022/12/31 09:41:13;;;;;;;31.93;25.30;;;;;;;5.95;82.34;100521.83;1791530;78;21058;-75
2022/12/31 09:44:18;;;;;;;34.73;26.17;;;;;;;6.19;81.49;100534.06;1803336;77;21154;-75
2022/12/31 09:47:24;;;;;;;36.90;26.62;;;;;;;6.24;80.47;100531.91;1775983;78;21238;-74
2022/12/31 09:50:22;;;;;;;34.05;25.92;;;;;;;6.15;80.68;100529.50;1816713;78;20986;-73
2022/12/31 09:53:15;;;;;;;32.88;25.62;;;;;;;6.05;81.08;100521.95;1811481;78;21307;-74
2022/12/31 09:56:10;;;;;;;36.35;26.05;;;;;;;6.18;81.27;100509.94;1813588;77;20980;-75
2022/12/31 09:58:54;;;;;;;36.93;25.88;;;;;;;6.25;80.94;100497.46;1792419;78;21066;-73
2022/12/31 10:01:47;;;;;;;35.45;26.25;;;;;;;6.25;80.94;100489.55;1792076;78;21151;-74
2022/12/31 10:04:44;;;;;;;32.90;26.70;;;;;;;6.29;80.88;100488.83;1822144;77;21021;-73
2022/12/31 10:07:38;;;;;;;39.67;26.48;;;;;;;6.33;80.98;100483.66;1811244;78;21039;-74
2022/12/31 10:10:20;;;;;;;31.93;24.40;;;;;;;6.55;80.87;100481.92;1791584;78;21108;-73
2022/12/31 10:13:24;;;;;;;33.65;25.82;;;;;;;6.82;80.23;100474.91;1774804;78;20988;-75
2022/12/31 10:16:25;;;;;;;34.00;23.47;;;;;;;6.94;79.48;100463.81;1804935;78;21063;-73
2022/12/31 10:19:26;;;;;;;28.12;22.62;;;;;;;7.11;78.59;100466.35;1805198;78;21029;-73
2022/12/31 10:22:47;;;;;;;28.55;21.95;;;;;;;7.23;77.88;100450.81;1788127;78;21083;-74
2022/12/31 15:58:25;;;;;;;33.73;24.53;;;;;;;5.11;87.61;100301.20;1788697;79;23608;-66
2022/12/31 16:01:21;;;;;;;32.63;22.30;;;;;;;5.11;87.78;100305.15;1759556;81;21040;-70
2022/12/31 16:04:22;;;;;;;36.90;25.95;;;;;;;5.27;87.28;100295.56;1760053;81;21251;-69
2022/12/31 16:06:49;;;;;;;34.83;23.42;;;;;;;5.38;86.84;100305.27;1743774;81;21527;-67
2022/12/31 16:09:25;;;;;;;34.88;23.12;;;;;;;5.36;86.70;100304.06;1726809;81;21488;-67
2022/12/31 16:11:53;;;;;;;34.30;21.27;;;;;;;5.40;86.52;100295.45;1759723;81;21310;-68
2022/12/31 16:14:37;;;;;;;26.57;20.82;;;;;;;5.53;86.12;100280.34;1759840;81;21513;-69
2022/12/31 16:17:05;;;;;;;31.52;22.65;;;;;;;5.56;85.68;100297.70;1759768;81;21966;-67
2022/12/31 16:19:43;;;;;;;30.15;21.40;;;;;;;5.54;85.70;100283.31;1759432;81;21037;-68
2022/12/31 16:22:20;;;;;;;30.77;23.22;;;;;;;5.62;85.43;100292.79;1759657;81;21053;-69
2022/12/31 16:24:55;;;;;;;30.50;22.82;;;;;;;5.66;85.09;100298.63;1752265;81;21100;-70
2022/12/31 16:27:21;;;;;;;30.50;21.12;;;;;;;5.61;85.14;100300.81;1772734;80;21071;-69
2022/12/31 16:29:50;;;;;;;28.77;21.12;;;;;;;5.66;85.00;100280.17;1776899;80;22444;-69
2022/12/31 16:32:17;;;;;;;32.63;21.35;;;;;;;5.76;84.68;100261.36;1776526;80;21050;-69
2022/12/31 16:34:44;;;;;;;28.80;21.80;;;;;;;5.76;84.58;100268.44;1776826;80;21414;-67
2022/12/31 16:37:19;;;;;;;30.10;21.42;;;;;;;5.71;84.59;100274.89;1773634;80;21358;-71
2022/12/31 16:40:08;;;;;;;31.12;21.80;;;;;;;5.75;84.45;100273.34;1739533;82;21042;-67
2022/12/31 16:42:37;;;;;;;30.17;23.83;;;;;;;5.83;84.03;100256.41;1752021;81;21166;-71
2022/12/31 16:45:18;;;;;;;30.90;21.95;;;;;;;5.76;84.05;100264.48;1738184;82;21066;-69
2022/12/31 16:47:45;;;;;;;29.30;21.65;;;;;;;5.71;84.32;100255.13;1716776;81;21065;-68
2022/12/31 16:50:17;;;;;;;33.63;24.27;;;;;;;5.78;84.04;100263.87;1732072;80;21082;-72
2022/12/31 16:52:49;;;;;;;28.00;22.60;;;;;;;5.78;83.96;100258.60;1753970;80;21046;-69
2022/12/31 16:55:19;;;;;;;32.15;22.70;;;;;;;5.68;84.16;100260.66;1748600;82;21861;-70
2022/12/31 16:57:52;;;;;;;30.75;23.20;;;;;;;5.66;84.30;100264.36;1721144;81;21057;-71
2022/12/31 17:00:19;;;;;;;30.95;22.67;;;;;;;5.79;83.94;100261.58;1728046;83;21029;-69
2022/12/31 17:02:51;;;;;;;34.00;21.97;;;;;;;5.76;83.75;100252.62;1745919;80;21069;-70
2022/12/31 17:05:23;;;;;;;31.95;21.77;;;;;;;5.67;83.94;100266.05;1733573;82;21506;-70
2022/12/31 17:07:49;;;;;;;30.65;21.33;;;;;;;5.69;83.93;100264.95;1758280;81;21085;-70
2022/12/31 17:10:26;;;;;;;30.55;22.58;;;;;;;5.80;83.56;100256.68;1738167;81;21045;-70
2022/12/31 17:13:00;;;;;;;39.85;22.35;;;;;;;5.75;83.50;100244.34;1721961;81;21577;-72
2022/12/31 17:15:41;;;;;;;36.20;23.27;;;;;;;5.67;83.66;100266.88;1752422;81;21025;-69
2022/12/31 17:18:15;;;;;;;33.40;21.37;;;;;;;5.75;83.52;100270.22;1757699;81;21014;-71
2022/12/31 17:20:41;;;;;;;27.75;19.92;;;;;;;5.72;83.36;100263.89;1749142;81;22209;-71
2022/12/31 17:23:08;;;;;;;28.32;21.87;;;;;;;5.69;83.50;100248.31;1740702;81;21120;-70
2022/12/31 17:25:36;;;;;;;31.73;23.50;;;;;;;5.76;83.25;100246.03;1746560;80;21081;-70
2022/12/31 17:28:21;;;;;;;29.52;21.35;;;;;;;5.69;83.24;100254.41;1753876;81;21074;-71
2022/12/31 17:30:48;;;;;;;29.12;20.72;;;;;;;5.64;83.54;100242.10;1744735;81;21065;-70
2022/12/31 17:33:23;;;;;;;28.23;20.68;;;;;;;5.69;83.29;100256.22;1751056;81;21115;-71
2022/12/31 17:35:56;;;;;;;29.05;20.23;;;;;;;5.73;83.09;100238.36;1757264;81;21085;-69
2022/12/31 17:38:29;;;;;;;28.38;20.92;;;;;;;5.62;83.34;100250.62;1747413;81;21022;-70
2022/12/31 17:41:13;;;;;;;29.37;20.80;;;;;;;5.65;83.30;100254.80;1774147;80;21098;-69